createdAt,value
2023-09-01T00:01:56.124Z,23.17
2023-09-01T00:04:22.597Z,22.81
2023-09-01T00:06:49.127Z,22.91
2023-09-01T00:09:15.638Z,22.83
2023-09-01T00:11:42.144Z,22.67
2023-09-01T00:14:08.624Z,22.42
2023-09-01T00:16:35.171Z,22.09
2023-09-01T00:19:01.664Z,22.27
2023-09-01T00:21:28.101Z,22.64
2023-09-01T00:23:54.571Z,22.48
2023-09-01T00:26:20.982Z,22.60
2023-09-01T00:28:47.518Z,22.48
2023-09-01T00:31:14.115Z,22.77
2023-09-01T00:33:40.592Z,22.60
2023-09-01T00:36:07.058Z,22.85
2023-09-01T00:38:33.838Z,22.89
2023-09-01T00:41:00.378Z,22.61
2023-09-01T00:43:27.125Z,22.63
2023-09-01T00:45:53.695Z,22.43
2023-09-01T00:48:20.506Z,22.54
2023-09-01T00:50:47.200Z,22.50
2023-09-01T00:53:13.689Z,22.35
2023-09-01T00:55:40.187Z,22.20
2023-09-01T00:58:06.704Z,22.15
2023-09-01T01:00:33.252Z,22.26
2023-09-01T01:03:00.367Z,22.32
2023-09-01T01:05:26.863Z,22.31
2023-09-01T01:07:53.307Z,22.49
2023-09-01T01:10:19.821Z,22.34
2023-09-01T01:12:46.252Z,22.33
2023-09-01T01:15:12.749Z,22.26
2023-09-01T01:17:39.232Z,22.34
2023-09-01T01:20:05.747Z,22.27
2023-09-01T01:22:32.254Z,22.08
2023-09-01T01:24:58.761Z,22.44
2023-09-01T01:27:25.212Z,22.09
2023-09-01T01:29:51.660Z,22.28
2023-09-01T01:32:18.096Z,22.13
2023-09-01T01:34:44.667Z,22.01
2023-09-01T01:37:11.201Z,21.92
2023-09-01T01:39:37.680Z,21.73
2023-09-01T01:42:04.157Z,21.82
2023-09-01T01:44:30.654Z,21.82
2023-09-01T01:46:57.137Z,21.81
2023-09-01T01:49:23.583Z,21.61
2023-09-01T01:51:50.049Z,21.86
2023-09-01T01:54:16.482Z,21.60
2023-09-01T01:56:42.950Z,21.61
2023-09-01T01:59:09.436Z,21.46
2023-09-01T02:01:35.927Z,21.54
2023-09-01T02:04:02.529Z,21.33
2023-09-01T02:06:28.994Z,21.53
2023-09-01T02:08:55.478Z,21.60
2023-09-01T02:11:22.108Z,21.56
2023-09-01T02:13:48.536Z,21.68
2023-09-01T02:16:15.098Z,21.16
2023-09-01T02:18:41.648Z,21.24
2023-09-01T02:21:08.107Z,21.18
2023-09-01T02:23:34.777Z,20.81
2023-09-01T02:26:01.224Z,21.08
2023-09-01T02:28:27.977Z,21.01
2023-09-01T02:30:54.887Z,21.15
2023-09-01T02:33:21.306Z,20.95
2023-09-01T02:35:47.801Z,21.04
2023-09-01T02:38:14.632Z,20.77
2023-09-01T02:40:41.378Z,20.61
2023-09-01T02:43:07.851Z,20.76
2023-09-01T02:45:34.309Z,20.96
2023-09-01T02:48:00.853Z,20.82
2023-09-01T02:50:27.349Z,20.73
2023-09-01T02:52:53.803Z,20.72
2023-09-01T02:55:20.276Z,20.13
2023-09-01T02:57:46.738Z,20.26
2023-09-01T03:00:13.196Z,20.06
2023-09-01T03:02:39.821Z,19.80
2023-09-01T03:05:06.303Z,19.70
2023-09-01T03:07:32.813Z,19.76
2023-09-01T03:09:59.262Z,19.93
2023-09-01T03:12:25.719Z,19.74
2023-09-01T03:14:52.401Z,19.69
2023-09-01T03:17:18.846Z,19.62
2023-09-01T03:19:45.391Z,19.83
2023-09-01T03:22:11.835Z,19.60
2023-09-01T03:24:38.336Z,19.47
2023-09-01T03:27:04.857Z,19.50
2023-09-01T03:29:31.313Z,19.68
2023-09-01T03:31:57.925Z,19.75
2023-09-01T03:34:24.364Z,19.82
2023-09-01T03:36:50.818Z,19.80
2023-09-01T03:39:17.260Z,19.65
2023-09-01T03:41:43.726Z,19.86
2023-09-01T03:44:10.225Z,19.91
2023-09-01T03:46:36.802Z,19.69
2023-09-01T03:49:03.284Z,19.79
2023-09-01T03:51:29.762Z,19.95
2023-09-01T03:53:56.199Z,19.91
2023-09-01T03:56:22.636Z,19.90
2023-09-01T03:58:49.168Z,19.76
2023-09-01T04:01:15.771Z,19.40
2023-09-01T04:03:42.330Z,19.21
2023-09-01T04:06:08.900Z,19.31
2023-09-01T04:08:35.354Z,19.18
2023-09-01T04:11:01.816Z,19.31
2023-09-01T04:13:28.268Z,19.32
2023-09-01T04:15:54.794Z,19.32
2023-09-01T04:18:21.404Z,19.10
2023-09-01T04:20:48.557Z,19.02
2023-09-01T04:23:15.183Z,18.88
2023-09-01T04:25:41.631Z,19.14
2023-09-01T04:28:08.091Z,19.15
2023-09-01T04:30:34.541Z,19.06
2023-09-01T04:33:01.042Z,19.14
2023-09-01T04:35:27.477Z,19.06
2023-09-01T04:37:53.912Z,18.94
2023-09-01T04:40:20.362Z,19.00
2023-09-01T04:42:46.812Z,19.29
2023-09-01T04:45:13.312Z,19.60
2023-09-01T04:47:39.843Z,19.48
2023-09-01T04:50:06.324Z,19.21
2023-09-01T04:52:42.488Z,19.39
2023-09-01T04:55:10.087Z,19.84
2023-09-01T04:57:36.562Z,19.70
2023-09-01T05:00:03.020Z,19.40
2023-09-01T05:02:29.503Z,19.66
2023-09-01T05:04:56.052Z,19.99
2023-09-01T05:07:22.743Z,20.00
2023-09-01T05:09:49.331Z,19.76
2023-09-01T05:12:15.815Z,19.93
2023-09-01T05:14:42.319Z,20.03
2023-09-01T05:17:08.758Z,20.07
2023-09-01T05:19:35.333Z,19.96
2023-09-01T05:22:01.774Z,20.01
2023-09-01T05:24:28.336Z,20.05
2023-09-01T05:26:54.800Z,19.81
2023-09-01T05:29:21.317Z,19.66
2023-09-01T05:31:47.987Z,19.82
2023-09-01T05:34:14.484Z,19.79
2023-09-01T05:36:40.922Z,19.63
2023-09-01T05:39:07.647Z,19.87
2023-09-01T05:41:34.119Z,19.85
2023-09-01T05:44:00.609Z,19.95
2023-09-01T05:46:27.088Z,20.09
2023-09-01T05:48:53.531Z,20.33
2023-09-01T05:51:19.974Z,20.12
2023-09-01T05:53:46.494Z,20.34
2023-09-01T05:56:12.977Z,20.29
2023-09-01T05:58:39.479Z,20.18
2023-09-01T06:01:05.946Z,20.32
2023-09-01T06:03:32.482Z,20.43
2023-09-01T06:05:59.015Z,20.60
2023-09-01T06:08:25.463Z,20.43
2023-09-01T06:10:51.897Z,20.41
2023-09-01T06:13:18.355Z,20.41
2023-09-01T06:15:44.814Z,20.56
2023-09-01T06:18:14.284Z,20.57
2023-09-01T06:20:41.006Z,20.69
2023-09-01T06:23:07.587Z,20.86
2023-09-01T06:25:34.054Z,20.65
2023-09-01T06:28:00.553Z,20.83
2023-09-01T06:30:27.131Z,21.01
2023-09-01T06:32:53.717Z,21.13
2023-09-01T06:35:20.268Z,21.11
2023-09-01T06:37:46.719Z,21.26
2023-09-01T06:40:13.259Z,21.29
2023-09-01T06:42:39.738Z,21.30
2023-09-01T06:45:06.371Z,21.47
2023-09-01T06:47:32.953Z,21.59
2023-09-01T06:49:59.481Z,21.44
2023-09-01T06:52:26.058Z,21.38
2023-09-01T06:54:52.489Z,21.76
2023-09-01T06:57:18.968Z,21.58
2023-09-01T06:59:45.463Z,21.71
2023-09-01T07:02:11.925Z,21.70
2023-09-01T07:04:38.420Z,22.00
2023-09-01T07:07:04.991Z,21.98
2023-09-01T07:09:31.473Z,22.23
2023-09-01T07:11:57.949Z,22.19
2023-09-01T07:14:24.428Z,22.29
2023-09-01T07:16:51.094Z,22.21
2023-09-01T07:19:17.569Z,22.13
2023-09-01T07:21:44.018Z,22.22
2023-09-01T07:24:10.504Z,22.15
2023-09-01T07:26:37.008Z,21.91
2023-09-01T07:29:03.534Z,22.34
2023-09-01T07:31:30.151Z,22.48
2023-09-01T07:33:56.819Z,22.42
2023-09-01T07:36:23.299Z,22.34
2023-09-01T07:38:49.850Z,22.76
2023-09-01T07:41:16.314Z,22.32
2023-09-01T07:43:42.870Z,22.77
2023-09-01T07:46:09.394Z,22.93
2023-09-01T07:48:35.945Z,22.90
2023-09-01T07:51:02.460Z,23.09
2023-09-01T07:53:29.035Z,23.05
2023-09-01T07:55:56.005Z,23.16
2023-09-01T07:58:22.473Z,22.77
2023-09-01T08:00:49.054Z,22.89
2023-09-01T08:03:15.744Z,23.16
2023-09-01T08:05:42.275Z,23.41
2023-09-01T08:08:08.830Z,23.58
2023-09-01T08:10:35.297Z,23.55
2023-09-01T08:13:01.763Z,23.42
2023-09-01T08:15:28.368Z,23.33
2023-09-01T08:17:54.941Z,23.28
2023-09-01T08:20:21.475Z,23.37
2023-09-01T08:22:47.963Z,23.89
2023-09-01T08:25:14.496Z,24.14
2023-09-01T08:27:40.992Z,24.12
2023-09-01T08:30:07.455Z,23.90
2023-09-01T08:32:33.964Z,24.28
2023-09-01T08:35:00.475Z,24.67
2023-09-01T08:37:27.175Z,24.09
2023-09-01T08:39:53.700Z,24.58
2023-09-01T08:42:20.133Z,24.60
2023-09-01T08:44:47.145Z,24.73
2023-09-01T08:47:13.718Z,24.66
2023-09-01T08:49:40.593Z,24.83
2023-09-01T08:52:07.162Z,25.15
2023-09-01T08:54:33.724Z,25.25
2023-09-01T08:57:01.409Z,25.09
2023-09-01T08:59:27.872Z,25.40
2023-09-01T09:01:54.511Z,25.42
2023-09-01T09:04:21.122Z,25.43
2023-09-01T09:06:47.606Z,25.36
2023-09-01T09:09:14.081Z,25.48
2023-09-01T09:11:40.746Z,25.61
2023-09-01T09:14:10.289Z,25.95
2023-09-01T09:16:37.618Z,26.19
2023-09-01T09:19:04.159Z,25.84
2023-09-01T09:21:30.635Z,25.77
2023-09-01T09:24:11.099Z,25.41
2023-09-01T09:26:43.536Z,25.40
2023-09-01T09:29:10.048Z,25.98
2023-09-01T09:31:36.589Z,26.11
2023-09-01T09:34:03.061Z,25.97
2023-09-01T09:36:29.581Z,25.84
2023-09-01T09:38:56.047Z,26.26
2023-09-01T09:41:22.502Z,26.26
2023-09-01T09:43:49.020Z,26.37
2023-09-01T09:46:15.575Z,26.25
2023-09-01T09:48:42.162Z,26.29
2023-09-01T09:51:08.790Z,26.43
2023-09-01T09:53:35.320Z,25.97
2023-09-01T09:56:01.796Z,26.58
2023-09-01T09:58:28.671Z,26.50
2023-09-01T10:00:55.124Z,26.84
2023-09-01T10:03:21.624Z,27.03
2023-09-01T10:05:48.540Z,26.24
2023-09-01T10:08:15.209Z,26.34
2023-09-01T10:10:41.884Z,26.72
2023-09-01T10:13:08.530Z,26.79
2023-09-01T10:15:35.195Z,26.85
2023-09-01T10:18:01.703Z,26.56
2023-09-01T10:20:28.216Z,26.71
2023-09-01T10:22:54.820Z,26.50
2023-09-01T10:25:21.343Z,27.13
2023-09-01T10:27:47.870Z,26.86
2023-09-01T10:30:14.666Z,26.53
2023-09-01T10:32:41.283Z,26.88
2023-09-01T10:35:08.900Z,27.34
2023-09-01T10:37:37.484Z,27.25
2023-09-01T10:40:04.131Z,27.12
2023-09-01T10:42:30.628Z,27.54
2023-09-01T10:44:57.137Z,27.48
2023-09-01T10:47:23.609Z,27.27
2023-09-01T10:49:50.062Z,27.35
2023-09-01T10:52:16.774Z,27.48
2023-09-01T10:54:43.268Z,27.64
2023-09-01T10:57:09.859Z,27.07
2023-09-01T10:59:36.310Z,27.62
2023-09-01T11:02:02.762Z,27.81
2023-09-01T11:04:29.252Z,27.91
2023-09-01T11:06:55.714Z,27.92
2023-09-01T11:09:22.212Z,28.17
2023-09-01T11:11:48.847Z,28.18
2023-09-01T11:14:15.300Z,27.93
2023-09-01T11:16:41.819Z,27.88
2023-09-01T11:19:08.319Z,28.31
2023-09-01T11:21:35.014Z,28.16
2023-09-01T11:24:01.704Z,27.78
2023-09-01T11:26:29.910Z,27.86
2023-09-01T11:28:56.638Z,27.81
2023-09-01T11:31:23.317Z,27.75
2023-09-01T11:33:49.866Z,27.71
2023-09-01T11:36:16.460Z,28.06
2023-09-01T11:38:42.983Z,27.69
2023-09-01T11:41:09.565Z,27.46
2023-09-01T11:43:36.116Z,28.04
2023-09-01T11:46:02.640Z,27.72
2023-09-01T11:48:29.251Z,27.60
2023-09-01T11:50:56.278Z,27.70
2023-09-01T11:53:22.839Z,28.02
2023-09-01T11:55:49.347Z,28.03
2023-09-01T11:58:15.987Z,28.02
2023-09-01T12:00:42.438Z,27.43
2023-09-01T12:03:09.116Z,28.28
2023-09-01T12:05:35.673Z,28.28
2023-09-01T12:08:02.226Z,28.66
2023-09-01T12:10:28.885Z,28.46
2023-09-01T12:12:55.515Z,28.24
2023-09-01T12:15:22.169Z,28.42
2023-09-01T12:17:48.809Z,28.34
2023-09-01T12:20:15.661Z,28.14
2023-09-01T12:22:42.251Z,28.21
2023-09-01T12:25:08.691Z,28.04
2023-09-01T12:27:35.170Z,28.34
2023-09-01T12:30:01.741Z,27.59
2023-09-01T12:32:28.364Z,28.38
2023-09-01T12:34:55.136Z,28.39
2023-09-01T12:37:21.754Z,28.66
2023-09-01T12:39:48.656Z,28.72
2023-09-01T12:42:15.114Z,28.25
2023-09-01T12:44:43.633Z,28.62
2023-09-01T12:47:10.515Z,28.97
2023-09-01T12:49:37.151Z,28.81
2023-09-01T12:52:03.867Z,28.39
2023-09-01T12:54:30.306Z,28.13
2023-09-01T12:56:56.750Z,28.14
2023-09-01T12:59:23.647Z,28.15
2023-09-01T13:01:50.320Z,28.21
2023-09-01T13:04:16.819Z,28.74
2023-09-01T13:06:43.283Z,28.75
2023-09-01T13:09:09.734Z,28.97
2023-09-01T13:11:36.630Z,28.48
2023-09-01T13:14:03.172Z,28.58
2023-09-01T13:16:29.718Z,28.80
2023-09-01T13:18:56.194Z,28.96
2023-09-01T13:21:22.657Z,28.61
2023-09-01T13:23:49.211Z,28.38
2023-09-01T13:26:15.662Z,28.65
2023-09-01T13:28:42.199Z,28.88
2023-09-01T13:31:08.734Z,28.90
2023-09-01T13:33:35.477Z,28.62
2023-09-01T13:36:01.947Z,28.66
2023-09-01T13:38:28.454Z,28.68
2023-09-01T13:40:54.950Z,28.92
2023-09-01T13:43:21.440Z,29.10
2023-09-01T13:45:47.932Z,29.06
2023-09-01T13:48:14.386Z,29.16
2023-09-01T13:50:40.861Z,28.96
2023-09-01T13:53:07.344Z,28.79
2023-09-01T13:55:33.817Z,28.89
2023-09-01T13:58:00.279Z,28.88
2023-09-01T14:00:26.823Z,29.05
2023-09-01T14:02:53.283Z,28.68
2023-09-01T14:05:19.843Z,28.57
2023-09-01T14:07:46.391Z,28.67
2023-09-01T14:10:13.014Z,29.00
2023-09-01T14:12:39.590Z,29.01
2023-09-01T14:15:06.183Z,29.22
2023-09-01T14:17:35.271Z,29.30
2023-09-01T14:20:01.811Z,29.89
2023-09-01T14:22:28.354Z,30.46
2023-09-01T14:24:54.920Z,31.02
2023-09-01T14:27:21.433Z,31.70
2023-09-01T14:29:48.093Z,32.20
2023-09-01T14:32:14.628Z,32.65
2023-09-01T14:34:41.077Z,33.78
2023-09-01T14:37:07.544Z,33.59
2023-09-01T14:39:34.045Z,35.58
2023-09-01T14:42:00.597Z,36.23
2023-09-01T14:44:27.170Z,36.86
2023-09-01T14:46:53.674Z,36.95
2023-09-01T14:49:20.191Z,37.28
2023-09-01T14:51:46.665Z,38.08
2023-09-01T14:54:13.127Z,38.11
2023-09-01T14:56:39.902Z,36.54
2023-09-01T14:59:06.810Z,37.23
2023-09-01T15:01:33.336Z,37.54
2023-09-01T15:04:01.992Z,37.84
2023-09-01T15:06:28.600Z,38.05
2023-09-01T15:08:55.113Z,38.34
2023-09-01T15:11:21.636Z,37.56
2023-09-01T15:13:48.196Z,37.84
2023-09-01T15:16:14.683Z,38.30
2023-09-01T15:18:41.289Z,38.38
2023-09-01T15:21:07.865Z,38.81
2023-09-01T15:23:34.371Z,38.38
2023-09-01T15:26:00.916Z,38.32
2023-09-01T15:28:27.351Z,38.22
2023-09-01T15:30:53.842Z,39.04
2023-09-01T15:33:20.402Z,37.96
2023-09-01T15:35:46.971Z,37.15
2023-09-01T15:38:13.450Z,37.04
2023-09-01T15:40:39.976Z,38.16
2023-09-01T15:43:06.561Z,37.42
2023-09-01T15:45:33.120Z,37.74
2023-09-01T15:47:59.736Z,39.31
2023-09-01T15:50:39.271Z,40.03
2023-09-01T15:53:10.282Z,40.97
2023-09-01T15:55:36.714Z,39.69
2023-09-01T15:58:03.205Z,39.78
2023-09-01T16:00:29.673Z,39.72
2023-09-01T16:02:56.249Z,39.62
2023-09-01T16:05:23.075Z,40.69
2023-09-01T16:07:49.578Z,39.64
2023-09-01T16:10:16.165Z,39.90
2023-09-01T16:12:42.610Z,38.90
2023-09-01T16:15:09.119Z,39.89
2023-09-01T16:17:35.590Z,39.54
2023-09-01T16:20:02.216Z,37.88
2023-09-01T16:22:28.725Z,35.59
2023-09-01T16:24:55.436Z,34.35
2023-09-01T16:27:21.962Z,33.18
2023-09-01T16:29:48.450Z,33.33
2023-09-01T16:32:15.152Z,32.17
2023-09-01T16:34:41.712Z,31.49
2023-09-01T16:37:08.300Z,31.27
2023-09-01T16:39:34.826Z,31.09
2023-09-01T16:42:01.287Z,31.24
2023-09-01T16:44:27.732Z,30.88
2023-09-01T16:46:56.486Z,30.32
2023-09-01T16:49:23.159Z,29.98
2023-09-01T16:51:49.676Z,30.28
2023-09-01T16:54:16.177Z,30.33
2023-09-01T16:56:42.642Z,30.29
2023-09-01T16:59:09.068Z,30.62
2023-09-01T17:01:37.168Z,30.26
2023-09-01T17:04:05.493Z,29.96
2023-09-01T17:06:31.937Z,29.96
2023-09-01T17:08:58.611Z,29.50
2023-09-01T17:11:25.167Z,29.94
2023-09-01T17:13:51.664Z,29.98
2023-09-01T17:16:18.239Z,30.09
2023-09-01T17:18:44.777Z,29.97
2023-09-01T17:21:11.271Z,30.07
2023-09-01T17:23:37.762Z,29.49
2023-09-01T17:26:04.214Z,29.34
2023-09-01T17:28:30.765Z,29.20
2023-09-01T17:30:57.271Z,29.45
2023-09-01T17:33:23.748Z,29.39
2023-09-01T17:35:50.191Z,29.42
2023-09-01T17:38:16.754Z,29.34
2023-09-01T17:40:43.298Z,29.08
2023-09-01T17:43:09.765Z,29.14
2023-09-01T17:45:36.283Z,29.29
2023-09-01T17:48:02.844Z,29.16
2023-09-01T17:50:29.400Z,28.94
2023-09-01T17:52:55.891Z,28.82
2023-09-01T17:55:22.368Z,28.96
2023-09-01T17:57:48.942Z,28.77
2023-09-01T18:00:15.619Z,28.46
2023-09-01T18:02:42.211Z,28.49
2023-09-01T18:05:08.742Z,28.25
2023-09-01T18:07:35.301Z,28.39
2023-09-01T18:10:01.790Z,28.32
2023-09-01T18:12:28.296Z,28.19
2023-09-01T18:14:54.922Z,28.31
2023-09-01T18:17:21.447Z,28.38
2023-09-01T18:19:47.919Z,28.13
2023-09-01T18:22:14.448Z,27.95
2023-09-01T18:24:40.883Z,28.04
2023-09-01T18:27:08.805Z,27.82
2023-09-01T18:29:35.304Z,28.04
2023-09-01T18:32:01.884Z,27.65
2023-09-01T18:34:28.452Z,27.29
2023-09-01T18:36:54.967Z,27.48
2023-09-01T18:39:22.952Z,27.63
2023-09-01T18:41:50.908Z,27.37
2023-09-01T18:44:17.383Z,27.50
2023-09-01T18:46:43.905Z,27.15
2023-09-01T18:49:10.400Z,27.19
2023-09-01T18:51:36.967Z,27.45
2023-09-01T18:54:03.491Z,27.34
2023-09-01T18:56:30.021Z,27.29
2023-09-01T18:58:56.557Z,27.25
2023-09-01T19:01:23.066Z,26.99
2023-09-01T19:03:49.548Z,27.16
2023-09-01T19:06:16.033Z,27.27
2023-09-01T19:08:42.797Z,27.40
2023-09-01T19:11:09.273Z,27.04
2023-09-01T19:13:35.727Z,27.15
2023-09-01T19:16:02.422Z,27.01
2023-09-01T19:18:28.897Z,26.99
2023-09-01T19:20:55.378Z,26.72
2023-09-01T19:23:21.830Z,26.58
2023-09-01T19:25:48.323Z,26.43
2023-09-01T19:28:26.768Z,26.28
2023-09-01T19:30:57.960Z,26.22
2023-09-01T19:33:24.564Z,26.08
2023-09-01T19:35:51.144Z,26.64
2023-09-01T19:38:17.597Z,26.72
2023-09-01T19:40:44.109Z,26.62
2023-09-01T19:43:11.147Z,26.41
2023-09-01T19:45:37.745Z,26.04
2023-09-01T19:48:04.231Z,26.26
2023-09-01T19:50:30.826Z,26.07
2023-09-01T19:52:57.303Z,25.70
2023-09-01T19:55:23.781Z,26.01
2023-09-01T19:57:50.453Z,26.12
2023-09-01T20:00:16.916Z,25.89
2023-09-01T20:02:43.418Z,26.14
2023-09-01T20:05:09.999Z,26.15
2023-09-01T20:07:36.457Z,26.21
2023-09-01T20:10:02.949Z,26.43
2023-09-01T20:12:29.507Z,26.41
2023-09-01T20:14:55.980Z,26.42
2023-09-01T20:17:22.459Z,26.48
2023-09-01T20:19:48.986Z,26.47
2023-09-01T20:22:15.527Z,26.41
2023-09-01T20:24:42.006Z,26.33
2023-09-01T20:27:08.508Z,26.26
2023-09-01T20:29:34.985Z,26.17
2023-09-01T20:32:01.577Z,25.85
2023-09-01T20:34:28.084Z,25.95
2023-09-01T20:36:54.550Z,25.85
2023-09-01T20:39:21.268Z,25.92
2023-09-01T20:41:47.743Z,25.83
2023-09-01T20:44:14.179Z,25.88
2023-09-01T20:46:40.798Z,25.95
2023-09-01T20:49:07.273Z,25.90
2023-09-01T20:51:33.742Z,25.79
2023-09-01T20:54:00.285Z,25.73
2023-09-01T20:56:26.934Z,25.74
2023-09-01T20:58:53.399Z,25.63
2023-09-01T21:01:19.898Z,25.47
2023-09-01T21:03:46.405Z,25.43
2023-09-01T21:06:12.880Z,25.52
2023-09-01T21:08:39.318Z,25.31
2023-09-01T21:11:05.810Z,25.28
2023-09-01T21:13:32.683Z,25.31
2023-09-01T21:15:59.195Z,25.32
2023-09-01T21:18:25.740Z,25.30
2023-09-01T21:20:52.314Z,25.20
2023-09-01T21:23:18.946Z,25.19
2023-09-01T21:25:45.706Z,25.07
2023-09-01T21:28:12.139Z,25.15
2023-09-01T21:30:38.820Z,25.32
2023-09-01T21:33:05.300Z,25.42
2023-09-01T21:35:31.794Z,25.31
2023-09-01T21:37:58.243Z,25.30
2023-09-01T21:40:24.727Z,25.10
2023-09-01T21:42:51.153Z,25.19
2023-09-01T21:45:17.654Z,25.12
2023-09-01T21:47:44.160Z,25.10
2023-09-01T21:50:10.666Z,25.01
2023-09-01T21:52:37.191Z,24.72
2023-09-01T21:55:03.655Z,24.83
2023-09-01T21:57:30.263Z,24.82
2023-09-01T21:59:56.747Z,24.98
2023-09-01T22:02:23.311Z,24.98
2023-09-01T22:04:52.454Z,24.93
2023-09-01T22:07:19.410Z,24.81
2023-09-01T22:09:46.041Z,24.79
2023-09-01T22:12:12.490Z,24.92
2023-09-01T22:14:38.939Z,24.95
2023-09-01T22:17:05.451Z,24.68
2023-09-01T22:19:32.493Z,24.66
2023-09-01T22:21:59.164Z,24.76
2023-09-01T22:24:25.779Z,24.64
2023-09-01T22:26:52.309Z,24.60
2023-09-01T22:29:18.776Z,24.53
2023-09-01T22:31:45.561Z,24.51
2023-09-01T22:34:12.067Z,24.28
2023-09-01T22:36:38.501Z,24.21
2023-09-01T22:39:04.968Z,23.89
2023-09-01T22:41:31.487Z,23.82
2023-09-01T22:43:57.972Z,23.88
2023-09-01T22:46:24.537Z,23.76
2023-09-01T22:48:51.214Z,23.76
2023-09-01T22:51:17.653Z,23.76
2023-09-01T22:53:44.168Z,23.78
2023-09-01T22:56:10.659Z,24.02
2023-09-01T22:58:37.121Z,24.03
2023-09-01T23:01:03.586Z,23.92
2023-09-01T23:03:30.123Z,24.00
2023-09-01T23:05:56.621Z,24.16
2023-09-01T23:08:23.134Z,24.26
2023-09-01T23:10:49.613Z,24.25
2023-09-01T23:13:16.479Z,23.71
2023-09-01T23:15:43.091Z,23.68
2023-09-01T23:18:09.613Z,23.77
2023-09-01T23:20:36.109Z,23.83
2023-09-01T23:23:02.559Z,23.97
2023-09-01T23:25:29.049Z,24.02
2023-09-01T23:27:55.570Z,23.97
2023-09-01T23:30:22.068Z,23.56
2023-09-01T23:32:48.551Z,23.51
2023-09-01T23:35:15.090Z,23.50
2023-09-01T23:37:41.715Z,23.40
2023-09-01T23:40:08.255Z,23.50
2023-09-01T23:42:34.742Z,23.62
2023-09-01T23:45:01.218Z,23.57
2023-09-01T23:47:27.791Z,23.26
2023-09-01T23:49:54.274Z,22.94
2023-09-01T23:52:20.727Z,23.22
2023-09-01T23:54:47.202Z,23.25
2023-09-01T23:57:13.682Z,23.08
2023-09-01T23:59:40.265Z,23.22
